Time;durP1;ratioP1;P1;durP2;ratioP2;P2;SDS_P1;SDS_P2;PMS_P1;PMS_P2;Temp;Humidity;BMP_temperature;BMP_pressure;BME280_temperature;BME280_humidity;BME280_pressure;Samples;Min_cycle;Max_cycle;Signal;HPM_P1;HPM_P2
2021/04/24 00:07:08;;;;;;;9.63;5.37;;;;;;;2.64;64.64;100857.29;714466;1199;113637;-74
2021/04/24 00:22:28;;;;;;;10.25;4.60;;;;;;;2.77;65.74;100852.39;714452;1199;114901;-74
2021/04/24 00:37:49;;;;;;;11.13;4.10;;;;;;;2.86;67.31;100852.87;714566;1179;114115;-74
2021/04/24 00:53:12;;;;;;;7.13;3.20;;;;;;;2.72;69.36;100849.17;714356;1200;113496;-74
2021/04/24 01:08:32;;;;;;;5.13;2.40;;;;;;;2.67;69.40;100866.67;717017;1165;113670;-75
2021/04/24 01:23:54;;;;;;;7.68;2.63;;;;;;;2.59;69.81;100868.78;714071;1202;114258;-75
2021/04/24 01:39:15;;;;;;;11.58;4.35;;;;;;;2.45;70.00;100843.48;714085;1199;114701;-75
2021/04/24 01:54:35;;;;;;;11.63;4.53;;;;;;;2.47;70.83;100857.23;714019;1203;115188;-75
2021/04/24 02:09:56;;;;;;;24.78;10.78;;;;;;;2.44;72.26;100853.02;713783;1202;114339;-75
2021/04/24 02:25:19;;;;;;;10.13;3.88;;;;;;;2.33;72.94;100827.58;713857;1201;115043;-75
2021/04/24 02:40:39;;;;;;;8.53;4.20;;;;;;;2.12;72.93;100824.20;713759;1192;113596;-74
2021/04/24 02:56:00;;;;;;;13.45;6.63;;;;;;;2.10;74.97;100840.70;713630;1199;114307;-75
2021/04/24 03:11:21;;;;;;;38.33;14.13;;;;;;;1.96;75.46;100851.67;713841;1199;114070;-74
2021/04/24 03:26:42;;;;;;;10.53;4.93;;;;;;;1.78;75.62;100848.97;713629;1178;114607;-74
2021/04/24 03:42:02;;;;;;;12.05;3.98;;;;;;;1.50;74.99;100846.69;713813;1203;114643;-76
2021/04/24 03:57:22;;;;;;;6.18;3.25;;;;;;;1.50;76.42;100851.86;713934;1199;114800;-75
2021/04/24 04:12:44;;;;;;;13.80;4.73;;;;;;;1.61;77.52;100849.68;714562;1199;114949;-77
2021/04/24 04:28:06;;;;;;;10.85;4.45;;;;;;;1.95;77.68;100847.40;714657;1199;115070;-78
2021/04/24 04:43:26;;;;;;;20.95;9.40;;;;;;;2.19;77.41;100860.19;714205;1199;113562;-78
2021/04/24 04:58:46;;;;;;;17.45;6.13;;;;;;;2.53;77.37;100869.05;714076;1199;113979;-74
2021/04/24 05:14:07;;;;;;;17.93;7.00;;;;;;;2.90;77.58;100872.55;714604;1177;113982;-75
2021/04/24 05:29:27;;;;;;;9.28;4.68;;;;;;;3.37;78.04;100869.44;714339;1202;115198;-74
2021/04/24 05:44:48;;;;;;;10.85;4.05;;;;;;;4.03;77.74;100862.71;714213;1200;113647;-76
2021/04/24 06:00:13;;;;;;;6.20;2.95;;;;;;;4.43;77.91;100872.78;714047;1203;114488;-74
2021/04/24 06:15:34;;;;;;;7.90;3.87;;;;;;;6.08;77.97;100868.75;714179;1200;114895;-74
2021/04/24 06:30:54;;;;;;;8.33;3.70;;;;;;;5.65;75.48;100866.06;714181;1202;114146;-72
2021/04/24 06:46:14;;;;;;;8.10;4.78;;;;;;;6.13;74.97;100866.70;714011;1202;113976;-73
2021/04/24 07:01:35;;;;;;;8.33;4.08;;;;;;;6.63;71.62;100866.33;714139;1199;114909;-73
2021/04/24 07:16:56;;;;;;;6.90;3.85;;;;;;;7.71;70.47;100855.93;714056;1199;113843;-73
2021/04/24 07:32:16;;;;;;;8.30;4.38;;;;;;;9.05;67.68;100858.91;714102;1199;114005;-74
2021/04/24 07:47:37;;;;;;;8.25;3.95;;;;;;;9.73;64.62;100844.28;713956;1202;113435;-73
2021/04/24 08:02:58;;;;;;;9.07;4.50;;;;;;;10.41;60.83;100857.48;714058;1202;113429;-75
2021/04/24 08:18:18;;;;;;;5.38;2.30;;;;;;;11.05;56.11;100853.29;714240;1173;113666;-79
2021/04/24 08:33:39;;;;;;;4.58;2.30;;;;;;;11.03;53.84;100857.81;714284;1199;114951;-74
2021/04/24 08:49:01;;;;;;;7.55;3.10;;;;;;;12.33;52.27;100854.97;713952;1200;114502;-74
2021/04/24 09:04:21;;;;;;;5.25;3.05;;;;;;;13.01;50.82;100842.92;719611;1178;113779;-78
2021/04/24 09:19:41;;;;;;;10.65;5.65;;;;;;;12.84;45.41;100829.48;722788;1200;114536;-77
2021/04/24 09:35:03;;;;;;;3.90;1.85;;;;;;;12.84;44.07;100813.68;714337;1202;114937;-77
2021/04/24 09:50:31;;;;;;;4.15;1.28;;;;;;;13.42;39.51;100812.87;714210;1199;114649;-73
2021/04/24 10:05:52;;;;;;;5.58;2.08;;;;;;;11.53;41.63;100796.00;714124;1199;115291;-73
2021/04/24 10:21:12;;;;;;;1.00;1.00;;;;;;;11.30;41.07;100811.90;714237;1202;115054;-79
2021/04/24 10:36:36;;;;;;;2.43;1.50;;;;;;;11.16;41.62;100807.77;714178;1199;115336;-76
2021/04/24 10:52:19;;;;;;;7.65;2.20;;;;;;;11.30;42.16;100825.85;714048;1202;113803;-83
2021/04/24 11:07:39;;;;;;;12.38;5.73;;;;;;;13.41;43.10;100832.28;714250;1199;115205;-78
2021/04/24 11:23:00;;;;;;;22.50;6.58;;;;;;;13.36;41.22;100838.92;714434;1199;114610;-79
2021/04/24 11:38:20;;;;;;;6.47;2.27;;;;;;;11.99;40.30;100836.81;714877;1189;113979;-79
2021/04/24 11:53:45;;;;;;;57.33;19.23;;;;;;;13.25;40.08;100826.70;714578;1202;114668;-78
2021/04/24 12:09:16;;;;;;;24.08;11.10;;;;;;;12.41;39.53;100841.16;714710;1199;114603;-78
2021/04/24 12:24:59;;;;;;;4.63;3.00;;;;;;;11.89;41.06;100828.02;714010;1179;114044;-77
2021/04/24 12:40:21;;;;;;;17.13;6.85;;;;;;;12.10;41.98;100830.63;713963;1199;113865;-77
2021/04/24 12:55:44;;;;;;;8.05;3.90;;;;;;;11.91;43.03;100833.98;713965;1199;114061;-74
2021/04/24 13:11:11;;;;;;;8.27;3.70;;;;;;;11.89;44.72;100851.67;713904;1199;115154;-74
2021/04/24 13:26:34;;;;;;;17.15;6.60;;;;;;;11.57;45.00;100857.84;713956;1199;113851;-74
2021/04/24 13:42:11;;;;;;;11.58;4.40;;;;;;;11.23;44.67;100864.09;714028;1199;115467;-74
2021/04/24 13:57:32;;;;;;;101.73;32.93;;;;;;;11.57;43.52;100823.69;714216;1200;115171;-77
2021/04/24 14:12:54;;;;;;;30.10;13.10;;;;;;;11.21;42.59;100823.16;714233;1199;114179;-77
2021/04/24 14:28:20;;;;;;;33.03;15.48;;;;;;;11.22;43.81;100827.46;714302;1202;114213;-77
2021/04/24 14:43:41;;;;;;;37.35;14.85;;;;;;;15.51;43.77;100818.53;714400;1177;114066;-78
2021/04/24 14:59:01;;;;;;;36.65;14.83;;;;;;;13.57;40.00;100825.61;714758;1199;113990;-79
2021/04/24 15:14:22;;;;;;;22.80;10.65;;;;;;;12.24;41.87;100821.56;713986;1202;114347;-78
2021/04/24 15:29:42;;;;;;;55.60;23.70;;;;;;;12.12;41.53;100807.68;714643;1199;113377;-79
2021/04/24 15:45:04;;;;;;;33.33;17.05;;;;;;;11.95;42.16;100809.95;715561;1199;114699;-78
2021/04/24 16:00:30;;;;;;;19.40;10.37;;;;;;;10.97;43.51;100821.58;714918;1199;114824;-80
2021/04/24 16:15:51;;;;;;;92.83;34.88;;;;;;;10.72;44.26;100827.98;714185;1199;114209;-75
2021/04/24 16:31:11;;;;;;;36.45;13.93;;;;;;;10.32;44.43;100831.95;714324;1199;115567;-75
2021/04/24 16:46:32;;;;;;;24.83;9.63;;;;;;;9.69;45.65;100839.38;714926;1177;115167;-74
2021/04/24 17:01:53;;;;;;;61.03;18.53;;;;;;;9.46;46.41;100840.17;714527;1198;114341;-75
2021/04/24 17:17:13;;;;;;;52.80;16.57;;;;;;;9.22;46.28;100847.22;715980;1199;114703;-75
2021/04/24 17:32:34;;;;;;;30.18;10.30;;;;;;;8.60;47.58;100860.30;715585;1199;113852;-76
2021/04/24 17:47:55;;;;;;;51.53;22.00;;;;;;;8.28;48.00;100875.61;714438;1200;114206;-78
2021/04/24 18:03:15;;;;;;;26.80;11.13;;;;;;;7.67;48.25;100886.66;714464;1199;113888;-78
2021/04/24 18:18:37;;;;;;;18.00;7.33;;;;;;;7.01;49.14;100894.38;714883;1200;117764;-75
2021/04/24 18:33:59;;;;;;;25.90;9.63;;;;;;;6.62;50.20;100912.41;714583;1199;114114;-74
2021/04/24 18:49:20;;;;;;;41.13;17.40;;;;;;;6.13;51.50;100910.99;714678;1200;113975;-74
2021/04/24 19:04:40;;;;;;;122.78;40.75;;;;;;;5.77;52.76;100912.20;714947;1199;114239;-74
2021/04/24 19:20:00;;;;;;;261.40;83.80;;;;;;;5.44;53.56;100921.02;715966;1200;115417;-74
2021/04/24 19:35:22;;;;;;;273.97;85.03;;;;;;;5.03;54.58;100913.75;715887;1176;114357;-75
2021/04/24 19:50:42;;;;;;;214.60;83.23;;;;;;;4.49;55.83;100907.06;715216;1176;114161;-75
2021/04/24 20:06:04;;;;;;;92.90;35.98;;;;;;;3.95;55.93;100909.83;715162;1176;114059;-75
2021/04/24 20:21:24;;;;;;;216.87;73.70;;;;;;;3.52;57.77;100898.15;715362;1184;113831;-74
2021/04/24 20:36:46;;;;;;;81.58;32.45;;;;;;;3.23;58.45;100905.57;715119;1199;115623;-74
2021/04/24 20:52:06;;;;;;;38.88;16.13;;;;;;;2.81;58.74;100900.57;715027;1177;113892;-75
2021/04/24 21:07:27;;;;;;;52.93;23.23;;;;;;;2.46;60.71;100900.39;715008;1199;115129;-75
2021/04/24 21:22:47;;;;;;;50.48;20.28;;;;;;;2.23;61.79;100905.73;715130;1174;113856;-75
2021/04/24 21:38:08;;;;;;;63.53;25.90;;;;;;;1.90;62.54;100901.95;714294;1199;114190;-73
2021/04/24 21:53:29;;;;;;;41.55;16.55;;;;;;;1.46;62.69;100913.19;714086;1199;114276;-74
2021/04/24 22:08:49;;;;;;;28.60;13.80;;;;;;;1.30;65.13;100904.38;714386;1199;114211;-74
2021/04/24 22:24:10;;;;;;;31.73;15.80;;;;;;;1.23;65.78;100895.16;714299;1200;115011;-78
2021/04/24 22:39:31;;;;;;;20.97;8.30;;;;;;;0.85;65.75;100905.26;714550;1199;114048;-78
2021/04/24 22:54:52;;;;;;;25.60;12.73;;;;;;;0.66;67.48;100893.86;714355;1199;114027;-77
2021/04/24 23:10:13;;;;;;;30.78;12.28;;;;;;;0.56;68.46;100889.93;714507;1199;114297;-77
2021/04/24 23:25:33;;;;;;;33.93;12.05;;;;;;;0.49;69.94;100886.73;714478;1199;114963;-77
2021/04/24 23:40:56;;;;;;;23.58;10.20;;;;;;;0.32;70.10;100876.18;714271;1199;115245;-76
2021/04/24 23:56:16;;;;;;;31.58;12.28;;;;;;;0.24;70.95;100862.69;714452;1199;115339;-76
